createdAt,value
2024-03-24T00:00:14.353Z,3.41
2024-03-24T00:00:36.481Z,3.40
2024-03-24T00:01:06.358Z,3.39
2024-03-24T00:01:28.601Z,3.37
2024-03-24T00:01:50.719Z,3.36
2024-03-24T00:02:12.984Z,3.35
2024-03-24T00:02:35.183Z,3.33
2024-03-24T00:02:57.373Z,3.33
2024-03-24T00:03:19.431Z,3.31
2024-03-24T00:03:41.657Z,3.31
2024-03-24T00:04:04.283Z,3.29
2024-03-24T00:04:26.456Z,3.28
2024-03-24T00:04:48.676Z,3.27
2024-03-24T00:05:10.844Z,3.26
2024-03-24T00:05:33.036Z,3.25
2024-03-24T00:05:55.437Z,3.24
2024-03-24T00:06:17.630Z,3.22
2024-03-24T00:06:39.823Z,3.22
2024-03-24T00:07:02.144Z,3.20
2024-03-24T00:07:24.572Z,3.20
2024-03-24T00:07:47.629Z,3.18
2024-03-24T00:08:09.730Z,3.17
2024-03-24T00:08:32.127Z,3.16
2024-03-24T00:08:54.310Z,3.15
2024-03-24T00:09:16.606Z,3.14
2024-03-24T00:09:38.802Z,3.13
2024-03-24T00:10:02.952Z,3.12
2024-03-24T00:10:25.230Z,3.12
2024-03-24T00:10:47.313Z,3.11
2024-03-24T00:11:09.415Z,3.11
2024-03-24T00:11:31.609Z,3.11
2024-03-24T00:11:53.909Z,3.12
2024-03-24T00:12:16.099Z,3.13
2024-03-24T00:12:38.221Z,3.14
2024-03-24T00:13:00.342Z,3.16
2024-03-24T00:13:22.577Z,3.17
2024-03-24T00:13:44.975Z,3.19
2024-03-24T00:14:07.293Z,3.20
2024-03-24T00:14:29.976Z,3.22
2024-03-24T00:14:52.072Z,3.23
2024-03-24T00:15:14.288Z,3.23
2024-03-24T00:15:36.455Z,3.23
2024-03-24T00:15:58.954Z,3.23
2024-03-24T00:16:22.683Z,3.22
2024-03-24T00:16:44.876Z,3.22
2024-03-24T00:17:08.438Z,3.21
2024-03-24T00:17:30.508Z,3.20
2024-03-24T00:17:52.715Z,3.19
2024-03-24T00:18:14.980Z,3.18
2024-03-24T00:18:37.120Z,3.17
2024-03-24T00:19:00.301Z,3.15
2024-03-24T00:19:22.370Z,3.14
2024-03-24T00:19:44.471Z,3.13
2024-03-24T00:20:07.189Z,3.12
2024-03-24T00:20:29.369Z,3.10
2024-03-24T00:20:51.560Z,3.10
2024-03-24T00:21:13.758Z,3.08
2024-03-24T00:21:36.981Z,3.08
2024-03-24T00:21:59.259Z,3.07
2024-03-24T00:22:22.279Z,3.05
2024-03-24T00:22:44.471Z,3.05
2024-03-24T00:23:08.644Z,3.03
2024-03-24T00:24:24.190Z,3.05
2024-03-24T00:24:46.695Z,2.99
2024-03-24T00:25:10.732Z,2.98
2024-03-24T00:25:33.635Z,2.97
2024-03-24T00:25:55.826Z,2.97
2024-03-24T00:26:18.054Z,2.96
2024-03-24T00:26:40.215Z,2.95
2024-03-24T00:27:02.716Z,2.94
2024-03-24T00:27:24.840Z,2.93
2024-03-24T00:27:47.108Z,2.92
2024-03-24T00:28:09.332Z,2.91
2024-03-24T00:28:31.596Z,2.90
2024-03-24T00:28:53.784Z,2.89
2024-03-24T00:29:15.982Z,2.89
2024-03-24T00:29:38.177Z,2.88
2024-03-24T00:30:00.420Z,2.88
2024-03-24T00:30:22.766Z,2.88
2024-03-24T00:30:44.961Z,2.88
2024-03-24T00:31:07.176Z,2.88
2024-03-24T00:31:29.455Z,2.89
2024-03-24T00:31:52.258Z,2.90
2024-03-24T00:32:14.374Z,2.91
2024-03-24T00:32:36.658Z,2.92
2024-03-24T00:32:59.180Z,2.93
2024-03-24T00:33:21.336Z,2.94
2024-03-24T00:33:43.430Z,2.95
2024-03-24T00:34:05.625Z,2.96
2024-03-24T00:34:27.859Z,2.97
2024-03-24T00:34:50.113Z,2.97
2024-03-24T00:35:12.305Z,2.97
2024-03-24T00:35:34.426Z,2.96
2024-03-24T00:35:56.696Z,2.96
2024-03-24T00:36:18.939Z,2.94
2024-03-24T00:36:41.109Z,2.93
2024-03-24T00:37:03.279Z,2.92
2024-03-24T00:37:25.396Z,2.91
2024-03-24T00:37:47.659Z,2.90
2024-03-24T00:38:09.798Z,2.89
2024-03-24T00:38:32.047Z,2.88
2024-03-24T00:38:54.238Z,2.87
2024-03-24T00:39:16.439Z,2.86
2024-03-24T00:39:39.144Z,2.85
2024-03-24T00:40:02.294Z,2.84
2024-03-24T00:40:24.446Z,2.83
2024-03-24T00:40:46.640Z,2.82
2024-03-24T00:41:08.868Z,2.81
2024-03-24T00:41:31.026Z,2.80
2024-03-24T00:41:53.220Z,2.79
2024-03-24T00:42:15.416Z,2.78
2024-03-24T00:42:37.608Z,2.77
2024-03-24T00:42:59.829Z,2.75
2024-03-24T00:43:21.951Z,2.74
2024-03-24T00:43:44.193Z,2.73
2024-03-24T00:44:06.394Z,2.72
2024-03-24T00:44:29.322Z,2.71
2024-03-24T00:44:51.613Z,2.69
2024-03-24T00:45:13.782Z,2.69
2024-03-24T00:45:35.857Z,2.67
2024-03-24T00:45:58.167Z,2.66
2024-03-24T00:46:20.289Z,2.65
2024-03-24T00:46:42.456Z,2.64
2024-03-24T00:47:04.963Z,2.63
2024-03-24T00:47:27.179Z,2.62
2024-03-24T00:47:50.874Z,2.61
2024-03-24T00:48:12.997Z,2.60
2024-03-24T00:48:35.268Z,2.59
2024-03-24T00:48:57.492Z,2.58
2024-03-24T00:49:19.647Z,2.57
2024-03-24T00:49:41.771Z,2.55
2024-03-24T00:50:04.258Z,2.54
2024-03-24T00:50:27.355Z,2.54
2024-03-24T00:50:49.548Z,2.52
2024-03-24T00:51:11.743Z,2.51
2024-03-24T00:51:34.375Z,2.51
2024-03-24T00:51:56.538Z,2.51
2024-03-24T00:52:18.733Z,2.51
2024-03-24T00:52:41.027Z,2.52
2024-03-24T00:53:05.182Z,2.53
2024-03-24T00:53:27.359Z,2.53
2024-03-24T00:53:49.594Z,2.55
2024-03-24T00:54:11.857Z,2.56
2024-03-24T00:54:34.041Z,2.57
2024-03-24T00:54:56.436Z,2.58
2024-03-24T00:55:18.774Z,2.59
2024-03-24T00:55:41.029Z,2.60
2024-03-24T00:56:03.938Z,2.60
2024-03-24T00:56:26.033Z,2.60
2024-03-24T00:56:48.325Z,2.61
2024-03-24T00:57:10.422Z,2.60
2024-03-24T00:57:32.619Z,2.60
2024-03-24T00:57:54.806Z,2.59
2024-03-24T00:58:17.004Z,2.59
2024-03-24T00:58:39.193Z,2.58
2024-03-24T00:59:01.390Z,2.56
2024-03-24T00:59:23.642Z,2.55
2024-03-24T00:59:45.891Z,2.55
2024-03-24T01:00:08.375Z,2.54
2024-03-24T01:00:32.324Z,2.53
2024-03-24T01:00:55.833Z,2.51
2024-03-24T01:01:18.024Z,2.51
2024-03-24T01:01:40.179Z,2.50
2024-03-24T01:02:02.312Z,2.49
2024-03-24T01:02:24.516Z,2.48
2024-03-24T01:02:50.276Z,2.47
2024-03-24T01:03:12.467Z,2.47
2024-03-24T01:03:34.867Z,2.45
2024-03-24T01:03:56.956Z,2.45
2024-03-24T01:04:19.153Z,2.43
2024-03-24T01:04:41.281Z,2.43
2024-03-24T01:05:05.174Z,2.42
2024-03-24T01:05:27.298Z,2.41
2024-03-24T01:05:50.280Z,2.40
2024-03-24T01:06:12.370Z,2.40
2024-03-24T01:06:35.176Z,2.38
2024-03-24T01:06:57.379Z,2.38
2024-03-24T01:07:20.795Z,2.37
2024-03-24T01:07:42.913Z,2.36
2024-03-24T01:08:05.374Z,2.35
2024-03-24T01:08:29.722Z,2.35
2024-03-24T01:08:52.224Z,2.34
2024-03-24T01:09:14.930Z,2.34
2024-03-24T01:09:37.122Z,2.36
2024-03-24T01:09:59.212Z,2.36
2024-03-24T01:10:21.437Z,2.36
2024-03-24T01:10:43.867Z,2.39
2024-03-24T01:11:07.538Z,2.39
2024-03-24T01:11:29.811Z,2.40
2024-03-24T01:11:53.690Z,2.42
2024-03-24T01:12:15.956Z,2.42
2024-03-24T01:12:38.153Z,2.43
2024-03-24T01:13:00.651Z,2.45
2024-03-24T01:13:23.661Z,2.45
2024-03-24T01:13:46.162Z,2.45
2024-03-24T01:14:08.459Z,2.45
2024-03-24T01:14:30.961Z,2.45
2024-03-24T01:14:53.068Z,2.45
2024-03-24T01:15:15.274Z,2.44
2024-03-24T01:15:37.440Z,2.44
2024-03-24T01:15:59.613Z,2.43
2024-03-24T01:16:22.337Z,2.41
2024-03-24T01:16:44.866Z,2.41
2024-03-24T01:17:07.036Z,2.40
2024-03-24T01:17:30.685Z,2.39
2024-03-24T01:17:52.850Z,2.38
2024-03-24T01:18:15.043Z,2.38
2024-03-24T01:18:37.235Z,2.36
2024-03-24T01:18:59.433Z,2.35
2024-03-24T01:19:21.625Z,2.35
2024-03-24T01:19:43.817Z,2.34
2024-03-24T01:20:06.320Z,2.34
2024-03-24T01:20:28.512Z,2.33
2024-03-24T01:20:50.702Z,2.32
2024-03-24T01:21:13.613Z,2.31
2024-03-24T01:21:35.909Z,2.31
2024-03-24T01:21:58.030Z,2.30
2024-03-24T01:22:20.603Z,2.30
2024-03-24T01:22:43.527Z,2.29
2024-03-24T01:23:05.633Z,2.28
2024-03-24T01:23:27.796Z,2.28
2024-03-24T01:23:49.992Z,2.27
2024-03-24T01:24:12.053Z,2.27
2024-03-24T01:24:34.582Z,2.26
2024-03-24T01:24:56.706Z,2.25
2024-03-24T01:25:18.969Z,2.24
2024-03-24T01:25:41.161Z,2.24
2024-03-24T01:26:03.356Z,2.23
2024-03-24T01:26:25.561Z,2.22
2024-03-24T01:26:47.642Z,2.21
2024-03-24T01:27:09.843Z,2.21
2024-03-24T01:27:31.925Z,2.20
2024-03-24T01:27:54.125Z,2.20
2024-03-24T01:28:16.313Z,2.20
2024-03-24T01:28:38.425Z,2.21
2024-03-24T01:29:01.313Z,2.22
2024-03-24T01:29:24.434Z,2.23
2024-03-24T01:29:46.632Z,2.24
2024-03-24T01:30:09.424Z,2.25
2024-03-24T01:30:31.625Z,2.26
2024-03-24T01:30:53.832Z,2.27
2024-03-24T01:31:16.020Z,2.28
2024-03-24T01:31:38.310Z,2.29
2024-03-24T01:32:00.383Z,2.30
2024-03-24T01:32:22.595Z,2.30
2024-03-24T01:32:44.679Z,2.31
2024-03-24T01:33:06.975Z,2.31
2024-03-24T01:33:29.203Z,2.31
2024-03-24T01:33:51.468Z,2.31
2024-03-24T01:34:13.661Z,2.31
2024-03-24T01:34:35.852Z,2.30
2024-03-24T01:34:57.983Z,2.30
2024-03-24T01:35:20.557Z,2.29
2024-03-24T01:35:46.424Z,2.28
2024-03-24T01:36:08.720Z,2.27
2024-03-24T01:36:30.912Z,2.26
2024-03-24T01:36:53.210Z,2.26
2024-03-24T01:37:15.403Z,2.24
2024-03-24T01:37:37.702Z,2.24
2024-03-24T01:37:59.897Z,2.23
2024-03-24T01:38:22.036Z,2.23
2024-03-24T01:38:44.177Z,2.22
2024-03-24T01:39:06.382Z,2.22
2024-03-24T01:39:28.492Z,2.21
2024-03-24T01:39:51.279Z,2.20
2024-03-24T01:40:13.487Z,2.19
2024-03-24T01:40:35.665Z,2.18
2024-03-24T01:40:57.856Z,2.18
2024-03-24T01:41:19.941Z,2.16
2024-03-24T01:41:42.134Z,2.16
2024-03-24T01:42:04.326Z,2.15
2024-03-24T01:42:26.541Z,2.14
2024-03-24T01:42:48.718Z,2.13
2024-03-24T01:43:10.944Z,2.13
2024-03-24T01:43:33.206Z,2.12
2024-03-24T01:43:56.125Z,2.11
2024-03-24T01:44:18.308Z,2.10
2024-03-24T01:44:40.508Z,2.09
2024-03-24T01:45:03.349Z,2.08
2024-03-24T01:45:25.523Z,2.08
2024-03-24T01:45:48.211Z,2.07
2024-03-24T01:46:10.350Z,2.07
2024-03-24T01:46:32.594Z,2.07
2024-03-24T01:46:54.998Z,2.08
2024-03-24T01:47:17.698Z,2.09
2024-03-24T01:47:39.887Z,2.09
2024-03-24T01:48:01.993Z,2.11
2024-03-24T01:48:24.283Z,2.11
2024-03-24T01:48:46.475Z,2.13
2024-03-24T01:49:08.609Z,2.14
2024-03-24T01:49:30.863Z,2.15
2024-03-24T01:49:53.057Z,2.16
2024-03-24T01:50:15.350Z,2.17
2024-03-24T01:50:37.667Z,2.17
2024-03-24T01:50:59.840Z,2.18
2024-03-24T01:51:23.352Z,2.18
2024-03-24T01:51:45.557Z,2.18
2024-03-24T01:52:08.070Z,2.17
2024-03-24T01:52:30.252Z,2.16
2024-03-24T01:52:52.454Z,2.15
2024-03-24T01:53:14.637Z,2.15
2024-03-24T01:53:39.389Z,2.14
2024-03-24T01:54:01.493Z,2.13
2024-03-24T01:54:24.391Z,2.12
2024-03-24T01:54:46.456Z,2.11
2024-03-24T01:55:08.718Z,2.11
2024-03-24T01:55:31.171Z,2.10
2024-03-24T01:55:53.368Z,2.09
2024-03-24T01:56:16.566Z,2.08
2024-03-24T01:56:38.776Z,2.07
2024-03-24T01:57:01.071Z,2.06
2024-03-24T01:57:23.578Z,2.06
2024-03-24T01:57:45.779Z,2.04
2024-03-24T01:58:07.981Z,2.03
2024-03-24T01:58:33.355Z,2.03
2024-03-24T01:58:56.232Z,2.02
2024-03-24T01:59:18.424Z,2.01
2024-03-24T01:59:40.628Z,2.00
2024-03-24T02:00:03.456Z,2.00
2024-03-24T02:00:34.970Z,1.99
2024-03-24T02:00:57.327Z,1.98
2024-03-24T02:01:19.455Z,1.97
2024-03-24T02:01:41.716Z,1.96
2024-03-24T02:02:03.952Z,1.95
2024-03-24T02:02:26.028Z,1.94
2024-03-24T02:02:48.304Z,1.94
2024-03-24T02:03:11.000Z,1.94
2024-03-24T02:03:33.122Z,1.92
2024-03-24T02:03:55.284Z,1.91
2024-03-24T02:04:17.408Z,1.90
2024-03-24T02:04:49.183Z,1.91
2024-03-24T02:05:11.579Z,1.91
2024-03-24T02:05:33.779Z,1.92
2024-03-24T02:05:55.968Z,1.92
2024-03-24T02:06:18.295Z,1.94
2024-03-24T02:06:40.560Z,1.95
2024-03-24T02:07:02.619Z,1.95
2024-03-24T02:07:24.793Z,1.97
2024-03-24T02:07:47.039Z,1.98
2024-03-24T02:08:09.233Z,1.99
2024-03-24T02:08:31.560Z,2.00
2024-03-24T02:08:54.028Z,2.01
2024-03-24T02:09:16.348Z,2.01
2024-03-24T02:09:39.338Z,2.01
2024-03-24T02:10:01.530Z,2.01
2024-03-24T02:10:27.218Z,2.01
2024-03-24T02:10:49.425Z,2.00
2024-03-24T02:11:11.594Z,1.99
2024-03-24T02:11:33.661Z,1.99
2024-03-24T02:11:57.740Z,1.98
2024-03-24T02:12:19.909Z,1.97
2024-03-24T02:12:42.101Z,1.96
2024-03-24T02:13:04.398Z,1.94
2024-03-24T02:13:26.742Z,1.94
2024-03-24T02:13:48.988Z,1.93
2024-03-24T02:14:11.106Z,1.92
2024-03-24T02:14:33.200Z,1.91
2024-03-24T02:14:55.366Z,1.91
2024-03-24T02:15:17.582Z,1.90
2024-03-24T02:15:39.754Z,1.89
2024-03-24T02:16:01.942Z,1.89
2024-03-24T02:16:24.251Z,1.87
2024-03-24T02:16:46.435Z,1.87
2024-03-24T02:17:08.627Z,1.86
2024-03-24T02:17:30.710Z,1.85
2024-03-24T02:17:57.794Z,1.84
2024-03-24T02:18:25.536Z,1.83
2024-03-24T02:18:51.053Z,1.82
2024-03-24T02:19:13.463Z,1.81
2024-03-24T02:19:35.698Z,1.81
2024-03-24T02:19:57.792Z,1.80
2024-03-24T02:20:19.910Z,1.79
2024-03-24T02:20:42.104Z,1.79
2024-03-24T02:21:04.676Z,1.78
2024-03-24T02:21:27.391Z,1.76
2024-03-24T02:21:49.576Z,1.76
2024-03-24T02:22:11.809Z,1.75
2024-03-24T02:22:39.997Z,1.74
2024-03-24T02:23:02.064Z,1.73
2024-03-24T02:23:24.155Z,1.72
2024-03-24T02:23:46.372Z,1.71
2024-03-24T02:24:08.771Z,1.71
2024-03-24T02:24:30.891Z,1.70
2024-03-24T02:24:53.058Z,1.69
2024-03-24T02:25:15.184Z,1.69
2024-03-24T02:25:37.861Z,1.69
2024-03-24T02:26:00.044Z,1.69
2024-03-24T02:26:22.343Z,1.69
2024-03-24T02:26:44.432Z,1.70
2024-03-24T02:27:06.727Z,1.71
2024-03-24T02:27:28.923Z,1.71
2024-03-24T02:27:51.115Z,1.72
2024-03-24T02:28:13.352Z,1.73
2024-03-24T02:28:36.013Z,1.73
2024-03-24T02:28:58.213Z,1.75
2024-03-24T02:29:20.415Z,1.76
2024-03-24T02:29:42.603Z,1.77
2024-03-24T02:30:05.631Z,1.78
2024-03-24T02:30:28.723Z,1.78
2024-03-24T02:30:50.848Z,1.78
2024-03-24T02:31:13.023Z,1.78
2024-03-24T02:31:35.200Z,1.77
2024-03-24T02:31:57.270Z,1.76
2024-03-24T02:32:19.487Z,1.76
2024-03-24T02:32:44.749Z,1.74
2024-03-24T02:33:06.942Z,1.73
2024-03-24T02:33:29.341Z,1.73
2024-03-24T02:33:51.559Z,1.71
2024-03-24T02:34:13.859Z,1.70
2024-03-24T02:34:35.926Z,1.69
2024-03-24T02:34:58.521Z,1.68
2024-03-24T02:35:20.817Z,1.67
2024-03-24T02:35:43.228Z,1.66
2024-03-24T02:36:05.819Z,1.66
2024-03-24T02:36:28.013Z,1.64
2024-03-24T02:36:50.132Z,1.64
2024-03-24T02:37:12.331Z,1.63
2024-03-24T02:37:34.488Z,1.62
2024-03-24T02:37:56.712Z,1.61
2024-03-24T02:38:19.995Z,1.60
2024-03-24T02:38:42.807Z,1.60
2024-03-24T02:39:06.433Z,1.59
2024-03-24T02:39:29.354Z,1.57
2024-03-24T02:39:51.436Z,1.56
2024-03-24T02:40:13.577Z,1.55
2024-03-24T02:40:36.236Z,1.55
2024-03-24T02:40:58.429Z,1.53
2024-03-24T02:41:20.620Z,1.53
2024-03-24T02:41:42.819Z,1.51
2024-03-24T02:42:05.926Z,1.51
2024-03-24T02:42:27.984Z,1.50
2024-03-24T02:42:50.218Z,1.49
2024-03-24T02:43:12.372Z,1.48
2024-03-24T02:43:37.466Z,1.47
2024-03-24T02:43:59.656Z,1.46
2024-03-24T02:44:21.775Z,1.45
2024-03-24T02:44:44.045Z,1.44
2024-03-24T02:45:13.191Z,1.43
2024-03-24T02:45:35.314Z,1.42
2024-03-24T02:45:57.714Z,1.41
2024-03-24T02:46:19.873Z,1.40
2024-03-24T02:46:42.067Z,1.38
2024-03-24T02:47:04.647Z,1.36
2024-03-24T02:47:26.941Z,1.36
2024-03-24T02:47:49.192Z,1.36
2024-03-24T02:48:11.355Z,1.34
2024-03-24T02:48:33.444Z,1.33
2024-03-24T02:48:55.638Z,1.33
2024-03-24T02:49:17.744Z,1.32
2024-03-24T02:49:39.922Z,1.32
2024-03-24T02:50:02.122Z,1.33
2024-03-24T02:50:24.310Z,1.33
2024-03-24T02:50:46.400Z,1.34
2024-03-24T02:51:11.402Z,1.35
2024-03-24T02:51:34.995Z,1.35
2024-03-24T02:51:57.076Z,1.37
2024-03-24T02:52:19.371Z,1.37
2024-03-24T02:52:41.563Z,1.38
2024-03-24T02:53:03.962Z,1.40
2024-03-24T02:53:26.563Z,1.39
2024-03-24T02:53:48.685Z,1.41
2024-03-24T02:54:10.847Z,1.41
2024-03-24T02:54:32.971Z,1.41
2024-03-24T02:54:55.242Z,1.42
2024-03-24T02:55:17.428Z,1.42
2024-03-24T02:55:45.454Z,1.41
2024-03-24T02:56:07.902Z,1.40
2024-03-24T02:56:30.255Z,1.39
2024-03-24T02:56:52.440Z,1.38
2024-03-24T02:57:14.563Z,1.37
2024-03-24T02:57:36.651Z,1.37
2024-03-24T02:57:58.744Z,1.36
2024-03-24T02:58:20.924Z,1.35
2024-03-24T02:58:43.027Z,1.34
2024-03-24T02:59:05.214Z,1.34
2024-03-24T02:59:27.914Z,1.32
2024-03-24T02:59:50.705Z,1.32
2024-03-24T03:00:14.672Z,1.31
2024-03-24T03:00:36.829Z,1.31
2024-03-24T03:00:59.024Z,1.30
2024-03-24T03:01:21.543Z,1.29
2024-03-24T03:01:43.729Z,1.29
2024-03-24T03:02:05.809Z,1.28
2024-03-24T03:02:28.415Z,1.27
2024-03-24T03:02:50.617Z,1.27
2024-03-24T03:03:13.823Z,1.26
2024-03-24T03:03:35.919Z,1.25
2024-03-24T03:03:58.514Z,1.24
2024-03-24T03:04:20.608Z,1.24
2024-03-24T03:04:42.698Z,1.23
2024-03-24T03:05:05.611Z,1.23
2024-03-24T03:05:27.743Z,1.22
2024-03-24T03:05:50.185Z,1.21
2024-03-24T03:06:13.214Z,1.21
2024-03-24T03:06:35.508Z,1.20
2024-03-24T03:06:58.316Z,1.20
2024-03-24T03:07:20.520Z,1.19
2024-03-24T03:07:43.961Z,1.20
2024-03-24T03:08:06.239Z,1.19
2024-03-24T03:08:28.416Z,1.21
2024-03-24T03:08:50.550Z,1.22
2024-03-24T03:09:15.370Z,1.23
2024-03-24T03:09:37.430Z,1.24
2024-03-24T03:09:59.530Z,1.25
2024-03-24T03:10:21.770Z,1.26
2024-03-24T03:10:44.037Z,1.27
2024-03-24T03:11:06.166Z,1.28
2024-03-24T03:11:28.421Z,1.29
2024-03-24T03:11:50.490Z,1.30
2024-03-24T03:12:12.721Z,1.31
2024-03-24T03:12:35.515Z,1.32
2024-03-24T03:12:59.072Z,1.33
2024-03-24T03:13:21.238Z,1.33
2024-03-24T03:13:43.353Z,1.33
2024-03-24T03:14:05.618Z,1.32
2024-03-24T03:14:27.939Z,1.32
2024-03-24T03:14:50.115Z,1.31
2024-03-24T03:15:16.406Z,1.30
2024-03-24T03:15:38.733Z,1.30
2024-03-24T03:16:01.086Z,1.29
2024-03-24T03:16:23.140Z,1.29
2024-03-24T03:16:45.371Z,1.28
2024-03-24T03:17:07.870Z,1.28
2024-03-24T03:17:30.110Z,1.28
2024-03-24T03:17:52.767Z,1.27
2024-03-24T03:18:14.963Z,1.27
2024-03-24T03:18:38.106Z,1.26
2024-03-24T03:19:00.271Z,1.26
2024-03-24T03:19:22.872Z,1.25
2024-03-24T03:19:45.065Z,1.25
2024-03-24T03:20:09.816Z,1.25
2024-03-24T03:20:32.374Z,1.24
2024-03-24T03:20:54.612Z,1.24
2024-03-24T03:21:16.659Z,1.23
2024-03-24T03:21:39.109Z,1.22
2024-03-24T03:22:01.279Z,1.22
2024-03-24T03:22:23.603Z,1.22
2024-03-24T03:22:46.502Z,1.21
2024-03-24T03:23:08.793Z,1.20
2024-03-24T03:23:30.876Z,1.20
2024-03-24T03:23:53.491Z,1.20
2024-03-24T03:24:15.686Z,1.19
2024-03-24T03:24:37.977Z,1.18
2024-03-24T03:25:00.318Z,1.17
2024-03-24T03:25:22.571Z,1.17
2024-03-24T03:25:44.815Z,1.16
2024-03-24T03:26:08.185Z,1.16
2024-03-24T03:26:30.408Z,1.15
2024-03-24T03:26:52.599Z,1.14
2024-03-24T03:27:15.726Z,1.14
2024-03-24T03:27:38.094Z,1.13
2024-03-24T03:28:00.280Z,1.13
2024-03-24T03:28:22.690Z,1.12
2024-03-24T03:28:44.773Z,1.11
2024-03-24T03:29:06.889Z,1.11
2024-03-24T03:29:29.053Z,1.10
2024-03-24T03:29:51.245Z,1.11
2024-03-24T03:30:14.179Z,1.12
2024-03-24T03:30:36.454Z,1.13
2024-03-24T03:30:58.646Z,1.14
2024-03-24T03:31:20.847Z,1.15
2024-03-24T03:31:43.171Z,1.16
2024-03-24T03:32:05.565Z,1.17
2024-03-24T03:32:28.074Z,1.18
2024-03-24T03:32:52.382Z,1.19
2024-03-24T03:33:15.080Z,1.21
2024-03-24T03:33:38.501Z,1.22
2024-03-24T03:34:00.594Z,1.23
2024-03-24T03:34:23.095Z,1.24
2024-03-24T03:34:45.389Z,1.24
2024-03-24T03:35:07.702Z,1.25
2024-03-24T03:35:29.961Z,1.25
2024-03-24T03:35:53.981Z,1.25
2024-03-24T03:36:16.318Z,1.26
2024-03-24T03:36:39.050Z,1.25
2024-03-24T03:37:01.732Z,1.25
2024-03-24T03:37:24.119Z,1.24
2024-03-24T03:37:46.192Z,1.24
2024-03-24T03:38:09.630Z,1.24
2024-03-24T03:38:31.772Z,1.23
2024-03-24T03:38:56.682Z,1.22
2024-03-24T03:39:18.870Z,1.21
2024-03-24T03:39:42.219Z,1.21
2024-03-24T03:40:05.940Z,1.20
2024-03-24T03:40:28.111Z,1.20
2024-03-24T03:40:50.203Z,1.19
2024-03-24T03:41:12.302Z,1.18
2024-03-24T03:41:34.894Z,1.18
2024-03-24T03:41:57.089Z,1.17
2024-03-24T03:42:20.310Z,1.16
2024-03-24T03:42:42.427Z,1.16
2024-03-24T03:43:05.128Z,1.15
2024-03-24T03:43:28.629Z,1.14
2024-03-24T03:43:50.821Z,1.14
2024-03-24T03:44:13.012Z,1.13
2024-03-24T03:44:36.124Z,1.12
2024-03-24T03:44:58.322Z,1.12
2024-03-24T03:45:22.973Z,1.11
2024-03-24T03:45:45.044Z,1.11
2024-03-24T03:46:07.368Z,1.09
2024-03-24T03:46:29.550Z,1.09
2024-03-24T03:46:51.841Z,1.08
2024-03-24T03:47:16.835Z,1.08
2024-03-24T03:47:39.418Z,1.06
2024-03-24T03:48:01.504Z,1.06
2024-03-24T03:48:23.994Z,1.05
2024-03-24T03:48:46.492Z,1.05
2024-03-24T03:49:08.612Z,1.04
2024-03-24T03:49:30.705Z,1.04
2024-03-24T03:49:53.071Z,1.03
2024-03-24T03:50:18.350Z,1.03
2024-03-24T03:50:42.200Z,1.02
2024-03-24T03:51:09.981Z,1.02
2024-03-24T03:51:38.633Z,1.02
2024-03-24T03:52:00.739Z,1.03
2024-03-24T03:52:27.098Z,1.04
2024-03-24T03:52:49.306Z,1.04
2024-03-24T03:53:12.304Z,1.06
2024-03-24T03:53:38.078Z,1.07
2024-03-24T03:54:00.273Z,1.09
2024-03-24T03:54:23.207Z,1.10
2024-03-24T03:54:46.088Z,1.11
2024-03-24T03:55:12.801Z,1.13
2024-03-24T03:55:35.285Z,1.14
2024-03-24T03:55:57.478Z,1.15
2024-03-24T03:56:19.592Z,1.16
2024-03-24T03:56:42.178Z,1.16
2024-03-24T03:57:05.082Z,1.17
2024-03-24T03:57:27.651Z,1.17
2024-03-24T03:57:49.886Z,1.17
2024-03-24T03:58:13.124Z,1.17
2024-03-24T03:58:35.491Z,1.16
2024-03-24T03:58:57.788Z,1.16
2024-03-24T03:59:20.508Z,1.16
2024-03-24T03:59:42.684Z,1.15
2024-03-24T04:00:11.772Z,1.15
2024-03-24T04:00:36.892Z,1.14
2024-03-24T04:00:59.089Z,1.14
2024-03-24T04:01:21.693Z,1.14
2024-03-24T04:01:44.003Z,1.14
2024-03-24T04:02:06.279Z,1.14
2024-03-24T04:02:28.400Z,1.14
2024-03-24T04:02:50.590Z,1.14
2024-03-24T04:03:13.529Z,1.13
2024-03-24T04:03:36.213Z,1.13
2024-03-24T04:04:00.645Z,1.14
2024-03-24T04:04:22.819Z,1.13
2024-03-24T04:04:45.323Z,1.13
2024-03-24T04:05:14.164Z,1.13
2024-03-24T04:05:40.340Z,1.13
2024-03-24T04:06:05.915Z,1.13
2024-03-24T04:06:28.113Z,1.12
2024-03-24T04:06:51.745Z,1.12
2024-03-24T04:07:13.922Z,1.12
2024-03-24T04:07:36.670Z,1.12
2024-03-24T04:07:59.875Z,1.11
2024-03-24T04:08:22.242Z,1.11
2024-03-24T04:08:44.443Z,1.12
2024-03-24T04:09:10.103Z,1.11
2024-03-24T04:09:32.243Z,1.11
2024-03-24T04:09:55.005Z,1.11
2024-03-24T04:10:17.356Z,1.11
2024-03-24T04:10:39.716Z,1.11
2024-03-24T04:11:01.819Z,1.12
2024-03-24T04:11:23.993Z,1.13
2024-03-24T04:11:46.188Z,1.13
2024-03-24T04:12:08.710Z,1.15
2024-03-24T04:12:30.975Z,1.16
2024-03-24T04:12:53.169Z,1.17
2024-03-24T04:13:15.906Z,1.19
2024-03-24T04:13:38.174Z,1.21
2024-03-24T04:14:00.775Z,1.22
2024-03-24T04:14:24.601Z,1.23
2024-03-24T04:14:46.686Z,1.25
2024-03-24T04:15:09.195Z,1.26
2024-03-24T04:15:31.398Z,1.27
2024-03-24T04:15:53.633Z,1.28
2024-03-24T04:16:18.227Z,1.29
2024-03-24T04:16:41.035Z,1.30
2024-03-24T04:17:03.231Z,1.30
2024-03-24T04:17:25.348Z,1.31
2024-03-24T04:17:47.427Z,1.31
2024-03-24T04:18:09.622Z,1.30
2024-03-24T04:18:31.903Z,1.30
2024-03-24T04:18:54.097Z,1.30
2024-03-24T04:19:16.618Z,1.29
2024-03-24T04:19:38.889Z,1.30
2024-03-24T04:20:05.382Z,1.29
2024-03-24T04:20:27.583Z,1.29
2024-03-24T04:20:49.704Z,1.29
2024-03-24T04:21:12.074Z,1.28
2024-03-24T04:21:35.690Z,1.28
2024-03-24T04:21:57.894Z,1.28
2024-03-24T04:22:20.286Z,1.28
2024-03-24T04:22:44.930Z,1.28
2024-03-24T04:23:07.053Z,1.28
2024-03-24T04:23:29.722Z,1.27
2024-03-24T04:23:52.440Z,1.27
2024-03-24T04:24:15.295Z,1.27
2024-03-24T04:24:38.793Z,1.27
2024-03-24T04:25:00.952Z,1.27
2024-03-24T04:25:23.145Z,1.27
2024-03-24T04:25:48.623Z,1.27
2024-03-24T04:26:10.868Z,1.27
2024-03-24T04:26:33.104Z,1.27
2024-03-24T04:26:55.413Z,1.28
2024-03-24T04:27:17.799Z,1.28
2024-03-24T04:27:40.137Z,1.28
2024-03-24T04:28:02.798Z,1.29
2024-03-24T04:28:25.111Z,1.30
2024-03-24T04:28:47.293Z,1.32
2024-03-24T04:29:09.411Z,1.33
2024-03-24T04:29:31.576Z,1.35
2024-03-24T04:29:53.698Z,1.36
2024-03-24T04:30:15.963Z,1.37
2024-03-24T04:30:38.374Z,1.40
2024-03-24T04:31:00.557Z,1.42
2024-03-24T04:31:22.951Z,1.43
2024-03-24T04:31:45.108Z,1.45
2024-03-24T04:32:07.407Z,1.46
2024-03-24T04:32:30.972Z,1.48
2024-03-24T04:32:53.259Z,1.49
2024-03-24T04:33:15.834Z,1.50
2024-03-24T04:33:38.164Z,1.50
2024-03-24T04:34:00.372Z,1.50
2024-03-24T04:34:23.064Z,1.50
2024-03-24T04:34:45.352Z,1.50
2024-03-24T04:35:09.928Z,1.50
2024-03-24T04:35:32.092Z,1.50
2024-03-24T04:35:54.487Z,1.50
2024-03-24T04:36:16.608Z,1.50
2024-03-24T04:36:38.773Z,1.50
2024-03-24T04:37:00.970Z,1.49
2024-03-24T04:37:23.463Z,1.49
2024-03-24T04:37:45.580Z,1.49
2024-03-24T04:38:07.851Z,1.49
2024-03-24T04:38:30.144Z,1.49
2024-03-24T04:38:52.443Z,1.48
2024-03-24T04:39:19.859Z,1.48
2024-03-24T04:39:43.727Z,1.48
2024-03-24T04:40:09.968Z,1.48
2024-03-24T04:40:32.603Z,1.48
2024-03-24T04:40:55.171Z,1.48
2024-03-24T04:41:17.487Z,1.48
2024-03-24T04:41:42.423Z,1.49
2024-03-24T04:42:05.126Z,1.49
2024-03-24T04:42:28.554Z,1.49
2024-03-24T04:42:50.817Z,1.50
2024-03-24T04:43:15.207Z,1.51
2024-03-24T04:43:37.918Z,1.52
2024-03-24T04:44:00.110Z,1.54
2024-03-24T04:44:22.397Z,1.55
2024-03-24T04:44:44.587Z,1.57
2024-03-24T04:45:09.035Z,1.59
2024-03-24T04:45:31.621Z,1.62
2024-03-24T04:45:53.934Z,1.63
2024-03-24T04:46:16.143Z,1.65
2024-03-24T04:46:38.341Z,1.67
2024-03-24T04:47:04.696Z,1.69
2024-03-24T04:47:27.011Z,1.71
2024-03-24T04:47:49.604Z,1.73
2024-03-24T04:48:12.907Z,1.75
2024-03-24T04:48:37.864Z,1.77
2024-03-24T04:49:00.155Z,1.78
2024-03-24T04:49:23.313Z,1.79
2024-03-24T04:49:45.500Z,1.80
2024-03-24T04:50:08.095Z,1.80
2024-03-24T04:50:32.001Z,1.80
2024-03-24T04:50:54.223Z,1.81
2024-03-24T04:51:16.390Z,1.81
2024-03-24T04:51:38.585Z,1.81
2024-03-24T04:52:02.436Z,1.82
2024-03-24T04:52:26.057Z,1.83
2024-03-24T04:52:48.340Z,1.82
2024-03-24T04:53:10.631Z,1.83
2024-03-24T04:53:32.934Z,1.83
2024-03-24T04:53:55.218Z,1.83
2024-03-24T04:54:17.345Z,1.84
2024-03-24T04:54:39.711Z,1.84
2024-03-24T04:55:02.655Z,1.85
2024-03-24T04:55:25.180Z,1.85
2024-03-24T04:55:47.619Z,1.85
2024-03-24T04:56:10.371Z,1.85
2024-03-24T04:56:32.700Z,1.86
2024-03-24T04:56:54.918Z,1.86
2024-03-24T04:57:17.722Z,1.87
2024-03-24T04:57:39.780Z,1.88
2024-03-24T04:58:01.940Z,1.88
2024-03-24T04:58:24.410Z,1.89
2024-03-24T04:58:46.599Z,1.91
2024-03-24T04:59:09.375Z,1.92
2024-03-24T04:59:32.628Z,1.93
2024-03-24T04:59:55.189Z,1.95
2024-03-24T05:00:18.565Z,1.97
2024-03-24T05:00:41.780Z,1.99
2024-03-24T05:01:06.766Z,2.01
2024-03-24T05:01:29.015Z,2.03
2024-03-24T05:01:51.205Z,2.05
2024-03-24T05:02:13.502Z,2.07